Detall de PIREP

Printer-friendly versionPDF version

[2010/09/16 15:56:00]
Flight IATA:CT3232
Pilot Number:042
Company ICAO:CAT
Aircraft Type:B763/F
PAX:120
Departing Airport: LEPA
Destination Airport: LEMD
Alternate Airport:LEBL
Online: No
Route:TURIA UN733 PRADO
Flight Level:FL330
No Slew and time accel
No pause
Crash detect
Detect pilot in Cockpit between each 30 and 45 minutes
15:56 Zero fuel Weight: 244976 Lbs, Fuel Weight: 160981 Lbs
15:56 VATSIM:LEPA 161530Z 22008KT 9999 FEW018 26/18 Q1014 NOSIG
15:56 VATSIM:LEMD 161530Z 19006KT 130V250 9999 FEW030TCU SCT040 25/15 Q1014 NOSIG
15:56 VOICE CATALONIAN
15:58 Parking Brakes off
16:06 Take-off
16:06 Take off Weight: 403385 Lbs
16:06 Wind: 222 @ 008 Knots Heading: 238
16:06 POS N39 33 03 E002 43 07
16:06 Gear Up: 187 Knots
16:06 Flaps:3 at 187 Knots
16:06 Flaps:2 at 187 Knots
16:06 Flaps:1 at 189 Knots
16:07 Flaps:0 at 229 Knots
16:21 Wind:223@045 Knots Heading: 266 Ground Speed: 440 Knots Altitude 30488 ft
16:22 TOC
16:22 Fuel Weight: 150254 Lb
16:35 TOD
16:35 Fuel Weight: 147563 Lb
16:36 Wind:225@053 Knots Heading: 293 Ground Speed: 426 Knots Altitude 32680 ft
16:49 Flaps:1 at 239 Knots
16:49 Flaps:0 at 236 Knots
16:49 Flaps:1 at 228 Knots
16:51 Wind:245@029 Knots Heading: 296 Ground Speed: 263 Knots Altitude 15232 ft
16:56 Flaps:2 at 215 Knots
16:58 Flaps:3 at 196 Knots
16:59 Flaps:4 at 176 Knots
17:02 Flaps:5 at 175 Knots
17:03 Flaps:6 at 163 Knots
17:04 Gear Down: 160 Knots
17:06 Wind:247@002 Knots Heading: 180 Ground Speed: 172 Knots Altitude 3330 ft
17:07 TouchDown:Rate -208 ft/min Speed: 138 Knots
17:07 VATSIM:LEMD 161630Z 20009KT 160V230 9999 SCT040CB 25/15 Q1014 NOSIG
17:08 Land
17:08 Wind:216@009 Knots
17:08 Heading: 181
17:08 Flight Duration: 01:02
17:08 Landing Weight: 387614 Lbs
17:08 POS N40 30 37 W003 33 33
17:12 Parking brakes on
17:12 Block to Block Duration: 01:14
17:12 Final Fuel: 141750 Lbls
17:12 Spent Fuel: 19230 Lbls
17:12 Flight Length: 342 NM
17:12 TOD Land Length: 148 NM

Exportar CSV

Powered by Drupal - Modified by Danger4k